Time;durP1;ratioP1;P1;durP2;ratioP2;P2;SDS_P1;SDS_P2;PMS_P1;PMS_P2;Temp;Humidity;BMP_temperature;BMP_pressure;BME280_temperature;BME280_humidity;BME280_pressure;Samples;Min_cycle;Max_cycle;Signal;HPM_P1;HPM_P2
2021/07/28 00:00:22;;;;;;;20.92;14.45;;;27.10;64.10;;;;;;6170925;28;83929;-65
2021/07/28 00:03:22;;;;;;;20.60;14.00;;;27.10;64.20;;;;;;6166335;28;83919;-66
2021/07/28 00:06:23;;;;;;;21.20;15.27;;;27.10;64.00;;;;;;6179636;28;83157;-66
2021/07/28 00:09:23;;;;;;;21.73;14.77;;;27.10;64.20;;;;;;6175349;28;83526;-65
2021/07/28 00:12:24;;;;;;;20.40;14.50;;;27.10;64.10;;;;;;6175328;28;83428;-65
2021/07/28 00:15:24;;;;;;;22.92;15.10;;;27.10;64.00;;;;;;6177140;28;86802;-66
2021/07/28 00:25:11;;;;;;;23.00;14.63;;;27.00;64.30;;;;;;6178557;28;84186;-66
2021/07/28 00:28:12;;;;;;;18.95;14.27;;;27.00;64.20;;;;;;6177314;28;83230;-66
2021/07/28 00:31:12;;;;;;;21.55;14.98;;;27.00;64.20;;;;;;6178942;28;83118;-66
2021/07/28 00:34:13;;;;;;;22.20;14.02;;;27.00;64.30;;;;;;6176355;28;83356;-66
2021/07/28 00:37:13;;;;;;;23.02;14.57;;;27.00;64.30;;;;;;6179660;28;82989;-66
2021/07/28 00:40:14;;;;;;;21.65;14.27;;;26.90;64.10;;;;;;6177315;28;82958;-66
2021/07/28 00:43:14;;;;;;;21.58;13.35;;;26.90;64.20;;;;;;6177642;28;83386;-66
2021/07/28 00:46:15;;;;;;;18.98;13.00;;;26.90;64.00;;;;;;6171008;28;83067;-66
2021/07/28 00:49:15;;;;;;;19.88;14.07;;;26.90;64.10;;;;;;6171496;28;84079;-66
2021/07/28 00:52:16;;;;;;;18.63;13.82;;;26.90;63.90;;;;;;6168493;28;83163;-68
2021/07/28 00:55:16;;;;;;;23.13;12.85;;;26.90;64.00;;;;;;6177515;28;83220;-68
2021/07/28 00:58:17;;;;;;;21.17;13.85;;;26.80;64.00;;;;;;6178934;28;83108;-68
2021/07/28 01:01:17;;;;;;;16.95;12.85;;;26.80;63.60;;;;;;6178728;28;83360;-68
2021/07/28 01:04:18;;;;;;;17.42;12.77;;;26.80;63.30;;;;;;6169358;28;83143;-66
2021/07/28 01:07:18;;;;;;;17.10;12.45;;;26.80;63.00;;;;;;6177611;28;83195;-67
2021/07/28 01:10:19;;;;;;;21.15;12.93;;;26.80;63.10;;;;;;6163293;28;83021;-67
2021/07/28 01:13:30;;;;;;;16.73;12.13;;;26.80;63.30;;;;;;6177259;28;83069;-67
2021/07/28 01:16:31;;;;;;;15.38;12.40;;;26.80;63.20;;;;;;6178922;28;82942;-67
2021/07/28 01:19:31;;;;;;;18.20;12.90;;;26.80;63.20;;;;;;6178156;28;83671;-65
2021/07/28 01:22:32;;;;;;;20.50;12.40;;;26.80;63.50;;;;;;6192315;28;84032;-66
2021/07/28 01:25:33;;;;;;;18.25;13.10;;;26.90;63.70;;;;;;6177521;28;83367;-67
2021/07/28 01:28:34;;;;;;;19.83;13.38;;;26.90;63.60;;;;;;6177000;28;84502;-67
2021/07/28 01:31:34;;;;;;;17.92;13.52;;;26.80;64.30;;;;;;6172422;28;83266;-66
2021/07/28 01:34:35;;;;;;;19.55;13.20;;;26.90;63.80;;;;;;6169395;28;82898;-67
2021/07/28 01:37:35;;;;;;;20.13;14.10;;;26.90;63.90;;;;;;6169933;28;83427;-66
2021/07/28 01:40:36;;;;;;;22.98;13.57;;;26.80;63.80;;;;;;6174360;28;85692;-66
2021/07/28 01:43:36;;;;;;;20.55;14.93;;;26.90;63.90;;;;;;6177813;28;83106;-66
2021/07/28 01:46:37;;;;;;;23.05;15.68;;;26.80;64.00;;;;;;6174064;28;83884;-67
2021/07/28 01:49:37;;;;;;;21.20;14.73;;;26.90;64.00;;;;;;6164386;28;83059;-66
2021/07/28 01:52:38;;;;;;;18.65;13.82;;;26.90;64.10;;;;;;6172439;28;82943;-67
2021/07/28 01:55:38;;;;;;;26.10;16.33;;;26.90;64.00;;;;;;6175049;28;83145;-66
2021/07/28 01:58:42;;;;;;;23.98;15.63;;;26.80;64.10;;;;;;6177072;28;83040;-66
2021/07/28 02:01:42;;;;;;;25.13;15.52;;;26.80;64.20;;;;;;6175006;28;83290;-66
2021/07/28 02:04:43;;;;;;;19.67;13.77;;;26.80;64.50;;;;;;6165844;28;83031;-66
2021/07/28 02:07:43;;;;;;;20.13;14.88;;;26.80;63.80;;;;;;6166346;28;83081;-66
2021/07/28 02:10:45;;;;;;;17.38;13.43;;;26.80;63.70;;;;;;6179458;28;83715;-66
2021/07/28 02:13:46;;;;;;;19.23;13.20;;;26.80;63.50;;;;;;6173847;28;87568;-66
2021/07/28 02:16:46;;;;;;;19.23;13.55;;;26.80;63.30;;;;;;6185308;28;83326;-66
2021/07/28 02:19:47;;;;;;;19.08;12.80;;;26.80;63.30;;;;;;6179286;28;83509;-65
2021/07/28 02:22:47;;;;;;;20.52;14.10;;;26.80;63.30;;;;;;6164817;28;83723;-65
2021/07/28 02:25:48;;;;;;;20.75;14.25;;;26.80;63.30;;;;;;6179290;28;83345;-66
2021/07/28 02:28:49;;;;;;;24.50;13.95;;;26.80;63.70;;;;;;6167283;28;83116;-65
2021/07/28 02:31:49;;;;;;;28.30;14.90;;;26.80;63.80;;;;;;6176498;28;83101;-65
2021/07/28 02:34:49;;;;;;;19.83;15.18;;;26.70;64.10;;;;;;6177136;28;83143;-65
2021/07/28 02:37:50;;;;;;;27.75;17.83;;;26.80;63.90;;;;;;6175630;28;85501;-65
2021/07/28 02:40:50;;;;;;;22.95;16.45;;;26.80;63.90;;;;;;6177560;28;83139;-65
2021/07/28 02:43:51;;;;;;;22.92;15.50;;;26.80;63.80;;;;;;6180045;28;82983;-66
2021/07/28 02:46:51;;;;;;;18.40;14.80;;;26.70;63.50;;;;;;6170380;28;83129;-64
2021/07/28 02:49:52;;;;;;;23.02;14.45;;;26.70;63.70;;;;;;6181510;28;83223;-65
2021/07/28 02:52:52;;;;;;;21.35;15.68;;;26.70;63.60;;;;;;6170202;28;83120;-65
2021/07/28 02:55:53;;;;;;;17.98;13.63;;;26.70;63.80;;;;;;6176112;28;83072;-66
2021/07/28 02:58:53;;;;;;;20.35;13.95;;;26.70;63.40;;;;;;6178721;28;83218;-65
2021/07/28 03:01:54;;;;;;;19.02;12.65;;;26.70;63.50;;;;;;6178528;28;83573;-66
2021/07/28 03:04:54;;;;;;;20.70;14.00;;;26.80;63.50;;;;;;6168386;28;83496;-66
2021/07/28 03:07:55;;;;;;;18.10;13.13;;;26.80;63.50;;;;;;6175609;28;84038;-66
2021/07/28 03:10:56;;;;;;;23.58;15.52;;;26.70;63.10;;;;;;6175673;28;83422;-66
2021/07/28 03:13:56;;;;;;;20.52;14.40;;;26.70;62.90;;;;;;6168410;28;83528;-66
2021/07/28 03:16:56;;;;;;;16.77;12.88;;;26.70;63.10;;;;;;6178801;28;83176;-67
2021/07/28 03:19:57;;;;;;;18.98;13.73;;;26.70;63.40;;;;;;6177999;28;82938;-67
2021/07/28 03:22:57;;;;;;;21.02;14.52;;;26.70;63.40;;;;;;6178301;28;83276;-66
2021/07/28 03:25:58;;;;;;;23.63;16.15;;;26.70;63.50;;;;;;6176439;28;83169;-67
2021/07/28 03:28:58;;;;;;;23.48;15.02;;;26.40;63.60;;;;;;6173850;28;84251;-66
2021/07/28 03:31:59;;;;;;;18.55;11.63;;;26.50;64.20;;;;;;6172624;28;83447;-66
2021/07/28 03:34:59;;;;;;;16.55;10.55;;;26.20;63.40;;;;;;6176240;28;83327;-66
2021/07/28 03:38:00;;;;;;;17.75;10.40;;;26.20;64.40;;;;;;6173588;28;84532;-66
2021/07/28 03:41:00;;;;;;;16.25;9.85;;;26.30;63.60;;;;;;6177868;28;83291;-66
2021/07/28 03:44:01;;;;;;;13.93;7.63;;;26.40;64.50;;;;;;6182954;28;82843;-66
2021/07/28 03:47:01;;;;;;;12.63;7.13;;;26.40;64.20;;;;;;6174221;28;80531;-66
2021/07/28 03:50:02;;;;;;;12.07;7.40;;;26.40;63.60;;;;;;6172952;28;80369;-66
2021/07/28 03:53:02;;;;;;;13.55;8.30;;;26.50;63.50;;;;;;6173458;28;80427;-66
2021/07/28 03:56:03;;;;;;;15.90;8.55;;;26.40;64.00;;;;;;6179411;28;80314;-66
2021/07/28 03:59:03;;;;;;;12.82;7.32;;;26.40;64.50;;;;;;6189206;28;80755;-65
2021/07/28 04:02:04;;;;;;;14.82;7.72;;;26.50;64.30;;;;;;6180276;28;80780;-66
2021/07/28 04:05:04;;;;;;;12.75;7.50;;;26.50;64.30;;;;;;6182287;28;80669;-66
2021/07/28 04:08:05;;;;;;;16.63;7.60;;;26.50;63.90;;;;;;6187227;28;80475;-67
2021/07/28 04:11:05;;;;;;;18.42;7.10;;;26.50;63.80;;;;;;6180986;28;82119;-62
2021/07/28 04:14:06;;;;;;;13.02;7.00;;;26.50;63.40;;;;;;6175222;28;80478;-64
2021/07/28 04:17:06;;;;;;;17.38;7.78;;;26.60;63.60;;;;;;6168528;28;82888;-63
2021/07/28 04:20:07;;;;;;;15.68;7.35;;;26.60;63.80;;;;;;6180528;28;81171;-66
2021/07/28 04:23:07;;;;;;;17.08;7.55;;;26.60;63.70;;;;;;6179039;28;81080;-66
2021/07/28 04:26:08;;;;;;;14.35;7.30;;;26.60;63.60;;;;;;6177776;28;80729;-65
2021/07/28 04:29:08;;;;;;;18.50;8.82;;;26.70;63.40;;;;;;6171186;28;82446;-68
2021/07/28 04:32:09;;;;;;;18.08;9.88;;;26.70;63.50;;;;;;6172868;28;80235;-67
2021/07/28 04:35:09;;;;;;;14.27;8.73;;;26.70;63.90;;;;;;6176187;28;81131;-66
2021/07/28 04:38:10;;;;;;;17.15;8.38;;;26.70;63.90;;;;;;6182436;28;80589;-67
2021/07/28 04:41:10;;;;;;;18.80;8.80;;;26.70;64.10;;;;;;6179012;28;80831;-66
2021/07/28 04:44:11;;;;;;;14.23;8.25;;;26.70;64.30;;;;;;6176420;28;80401;-67
2021/07/28 04:47:11;;;;;;;18.65;8.77;;;26.70;64.20;;;;;;6169113;28;81426;-67
2021/07/28 04:50:12;;;;;;;19.25;7.95;;;26.70;64.10;;;;;;6175920;28;80663;-67
2021/07/28 04:53:12;;;;;;;20.15;7.68;;;26.70;64.60;;;;;;6179678;28;83111;-67
2021/07/28 04:56:13;;;;;;;14.50;8.25;;;26.70;64.50;;;;;;6181091;28;80112;-67
2021/07/28 04:59:13;;;;;;;19.05;8.82;;;26.80;64.80;;;;;;6181905;28;80321;-66
2021/07/28 05:02:14;;;;;;;20.33;9.00;;;26.80;65.50;;;;;;6168103;28;80253;-67
2021/07/28 05:05:14;;;;;;;19.38;7.95;;;26.80;65.50;;;;;;6171157;28;81414;-68
2021/07/28 05:08:15;;;;;;;19.77;9.30;;;26.70;65.40;;;;;;6174948;28;80529;-67
2021/07/28 05:11:15;;;;;;;17.77;8.35;;;26.80;64.40;;;;;;6173754;28;80697;-67
2021/07/28 05:14:16;;;;;;;13.88;7.75;;;26.80;64.90;;;;;;6177041;28;81474;-66
2021/07/28 05:17:19;;;;;;;19.50;8.85;;;26.80;65.00;;;;;;6180690;28;80589;-66
2021/07/28 05:20:19;;;;;;;14.52;8.00;;;26.80;65.10;;;;;;6177088;28;80822;-67
2021/07/28 05:23:20;;;;;;;18.25;8.55;;;26.80;65.10;;;;;;6174997;28;80694;-66
2021/07/28 05:26:20;;;;;;;15.25;6.90;;;26.90;65.20;;;;;;6173683;28;80761;-66
2021/07/28 05:29:21;;;;;;;16.02;7.30;;;26.90;65.00;;;;;;6172384;28;80188;-64
2021/07/28 05:32:23;;;;;;;13.73;7.10;;;26.90;64.80;;;;;;6178147;28;81508;-66
2021/07/28 05:35:23;;;;;;;16.75;8.05;;;27.00;64.50;;;;;;6173808;28;82234;-66
2021/07/28 05:38:24;;;;;;;19.75;6.82;;;26.90;64.10;;;;;;6180523;28;80675;-67
2021/07/28 05:41:25;;;;;;;23.80;8.02;;;27.00;64.60;;;;;;6166833;28;83265;-66
2021/07/28 05:44:28;;;;;;;14.10;7.70;;;27.00;64.50;;;;;;6196680;28;81291;-65
2021/07/28 05:47:29;;;;;;;16.27;7.47;;;27.00;64.50;;;;;;6171666;28;80540;-66
2021/07/28 05:50:29;;;;;;;17.00;8.05;;;27.00;64.90;;;;;;6177710;28;80434;-66
2021/07/28 05:53:30;;;;;;;11.32;6.70;;;27.00;64.50;;;;;;6174080;28;80918;-66
2021/07/28 05:56:30;;;;;;;14.88;7.03;;;27.00;64.40;;;;;;6170473;28;81710;-65
2021/07/28 05:59:31;;;;;;;12.05;7.53;;;27.10;64.60;;;;;;6167997;28;80736;-66
2021/07/28 06:02:32;;;;;;;12.82;6.68;;;27.10;64.40;;;;;;6177035;28;83244;-66
2021/07/28 06:05:32;;;;;;;15.95;6.88;;;27.10;64.40;;;;;;6181303;28;80305;-66
2021/07/28 06:08:32;;;;;;;16.55;6.57;;;27.10;64.20;;;;;;6185516;28;82302;-66
2021/07/28 06:11:33;;;;;;;20.67;6.85;;;27.10;64.20;;;;;;6175945;28;80380;-66
2021/07/28 06:14:33;;;;;;;13.93;6.47;;;27.20;64.40;;;;;;6178467;28;80470;-67
2021/07/28 06:17:34;;;;;;;12.00;6.13;;;27.10;64.10;;;;;;6178187;28;80644;-64
2021/07/28 06:20:34;;;;;;;11.15;6.63;;;27.10;64.30;;;;;;6176901;28;80699;-64
2021/07/28 06:23:35;;;;;;;10.35;6.53;;;27.00;64.20;;;;;;6179967;28;80702;-67
2021/07/28 06:26:35;;;;;;;298.70;97.85;;;27.00;64.40;;;;;;6174486;28;80646;-67
2021/07/28 06:29:36;;;;;;;600.20;223.13;;;27.00;64.70;;;;;;6175583;28;83259;-66
2021/07/28 06:32:37;;;;;;;545.97;194.88;;;27.00;64.90;;;;;;6172365;28;85929;-66
2021/07/28 06:35:37;;;;;;;484.13;168.27;;;27.00;65.10;;;;;;6178007;28;85545;-65
2021/07/28 06:38:37;;;;;;;468.00;158.90;;;27.00;65.20;;;;;;6177399;28;86364;-67
2021/07/28 06:41:38;;;;;;;387.75;130.77;;;27.10;65.20;;;;;;6176366;28;85357;-66
2021/07/28 06:44:38;;;;;;;326.05;112.20;;;27.10;65.50;;;;;;6167785;28;85909;-67
2021/07/28 06:47:39;;;;;;;297.52;104.15;;;27.10;65.50;;;;;;6165419;28;86431;-65
2021/07/28 06:50:39;;;;;;;273.05;93.72;;;27.10;65.40;;;;;;6172702;28;85913;-64
2021/07/28 06:53:40;;;;;;;258.48;90.93;;;27.20;65.40;;;;;;6170729;28;86830;-64
2021/07/28 06:56:40;;;;;;;226.85;80.57;;;27.10;65.70;;;;;;6173945;28;83372;-65
2021/07/28 06:59:41;;;;;;;189.23;72.50;;;27.10;65.40;;;;;;6172536;28;83390;-64
2021/07/28 07:02:41;;;;;;;158.25;58.38;;;27.20;65.40;;;;;;6178779;28;83234;-65
2021/07/28 07:05:42;;;;;;;142.52;51.03;;;27.20;65.20;;;;;;6166561;28;86078;-64
2021/07/28 07:08:42;;;;;;;120.30;42.67;;;27.20;65.20;;;;;;6173327;28;83082;-65
2021/07/28 07:11:43;;;;;;;105.60;38.53;;;27.20;65.10;;;;;;6168320;28;84472;-65
2021/07/28 07:14:43;;;;;;;98.68;36.97;;;27.20;65.10;;;;;;6169218;28;84385;-66
2021/07/28 07:17:44;;;;;;;83.43;31.27;;;27.20;65.10;;;;;;6175849;28;83631;-66
2021/07/28 07:20:44;;;;;;;66.38;25.02;;;27.30;65.40;;;;;;6168357;28;83238;-65
2021/07/28 07:23:45;;;;;;;39.80;17.45;;;27.30;64.80;;;;;;6163842;28;84065;-66
2021/07/28 07:26:45;;;;;;;24.42;11.38;;;27.20;63.70;;;;;;6183110;28;84108;-64
2021/07/28 07:29:48;;;;;;;19.60;11.30;;;27.20;63.20;;;;;;6169561;28;83194;-65
2021/07/28 07:33:37;;;;;;;16.20;9.35;;;27.20;62.30;;;;;;6178904;28;83551;-65
2021/07/28 07:36:10;;;;;;;17.02;8.98;;;27.20;61.50;;;;;;6178440;28;81777;-66
2021/07/28 07:39:11;;;;;;;16.67;8.82;;;27.30;61.90;;;;;;6168786;28;80335;-65
2021/07/28 07:42:11;;;;;;;12.68;8.40;;;27.20;61.70;;;;;;6176004;28;81488;-65
2021/07/28 07:45:12;;;;;;;12.98;8.35;;;27.20;62.10;;;;;;6179913;28;80255;-64
2021/07/28 07:48:12;;;;;;;14.63;9.00;;;27.20;62.40;;;;;;6181399;28;80272;-65
2021/07/28 07:51:13;;;;;;;14.68;8.00;;;27.30;62.80;;;;;;6175564;28;80088;-65
2021/07/28 07:54:13;;;;;;;14.95;8.23;;;27.30;62.70;;;;;;6180688;28;80639;-65
2021/07/28 07:57:14;;;;;;;13.82;7.70;;;27.30;62.30;;;;;;6172306;28;81040;-62
2021/07/28 08:00:14;;;;;;;15.63;8.40;;;27.30;62.30;;;;;;6173870;28;80481;-63
2021/07/28 08:03:15;;;;;;;13.05;7.93;;;27.30;62.50;;;;;;6172493;28;80856;-64
2021/07/28 08:06:15;;;;;;;12.57;8.00;;;27.30;62.30;;;;;;6169217;28;81415;-65
2021/07/28 08:09:16;;;;;;;14.98;8.23;;;27.30;63.00;;;;;;6181733;28;81237;-65
2021/07/28 08:12:16;;;;;;;12.80;8.20;;;27.40;63.60;;;;;;6169661;28;80618;-65
2021/07/28 08:15:17;;;;;;;12.73;7.90;;;27.40;63.90;;;;;;6173520;28;83174;-65
2021/07/28 08:18:17;;;;;;;19.23;7.80;;;27.40;63.60;;;;;;6185420;28;80814;-65
2021/07/28 08:21:18;;;;;;;11.55;6.85;;;27.40;63.30;;;;;;6179293;28;83166;-65
2021/07/28 08:24:18;;;;;;;11.02;7.68;;;27.40;63.70;;;;;;6171354;28;81875;-64
2021/07/28 08:27:19;;;;;;;13.02;6.82;;;27.40;62.80;;;;;;6182674;28;81155;-67
2021/07/28 08:30:19;;;;;;;11.80;7.40;;;27.40;62.60;;;;;;6190563;28;80576;-68
2021/07/28 08:33:20;;;;;;;13.75;8.35;;;27.40;62.60;;;;;;6173063;28;80546;-68
2021/07/28 08:36:20;;;;;;;12.05;7.35;;;27.50;63.70;;;;;;6169395;28;86846;-68
2021/07/28 08:39:20;;;;;;;12.15;6.88;;;27.50;61.90;;;;;;6181839;28;80804;-67
2021/07/28 08:42:21;;;;;;;18.33;7.63;;;27.60;62.10;;;;;;6174754;28;80782;-68
2021/07/28 08:45:21;;;;;;;11.48;7.32;;;27.60;62.30;;;;;;6180909;28;83652;-68
2021/07/28 08:48:22;;;;;;;15.27;7.93;;;27.70;60.70;;;;;;6182734;28;80333;-68
2021/07/28 08:51:22;;;;;;;13.00;7.47;;;27.70;61.20;;;;;;6179564;28;80553;-69
2021/07/28 08:54:23;;;;;;;13.05;7.63;;;27.70;60.40;;;;;;6172448;28;80379;-67
2021/07/28 08:57:23;;;;;;;13.27;7.82;;;27.80;60.70;;;;;;6179195;28;81157;-68
2021/07/28 09:00:24;;;;;;;13.90;7.88;;;27.80;60.20;;;;;;6175863;28;80796;-68
2021/07/28 09:03:24;;;;;;;11.20;7.45;;;27.90;58.90;;;;;;6180076;28;81526;-67
2021/07/28 09:06:25;;;;;;;10.80;7.03;;;27.90;58.90;;;;;;6176161;28;80441;-68
2021/07/28 09:09:25;;;;;;;15.50;6.68;;;27.80;59.00;;;;;;6192663;28;82113;-68
2021/07/28 09:12:26;;;;;;;12.70;6.90;;;27.90;58.40;;;;;;6184091;28;80239;-67
2021/07/28 09:15:26;;;;;;;12.35;6.28;;;27.90;58.80;;;;;;6165568;28;80317;-67
2021/07/28 09:18:27;;;;;;;14.13;6.88;;;28.00;56.90;;;;;;6190005;28;80275;-67
2021/07/28 09:21:28;;;;;;;15.15;5.68;;;28.00;57.00;;;;;;6187147;28;80644;-67
2021/07/28 09:24:29;;;;;;;15.55;6.70;;;28.00;56.90;;;;;;6184864;28;80827;-68
2021/07/28 09:27:29;;;;;;;15.40;7.10;;;28.00;57.10;;;;;;6188469;28;80901;-67
2021/07/28 09:30:30;;;;;;;12.52;6.13;;;28.10;56.20;;;;;;6190716;28;80407;-65
2021/07/28 09:33:30;;;;;;;13.65;7.03;;;28.10;55.80;;;;;;6184028;28;80391;-66
2021/07/28 09:36:31;;;;;;;10.20;5.65;;;28.20;56.10;;;;;;6190289;28;81055;-66
2021/07/28 09:39:31;;;;;;;11.25;6.57;;;28.30;57.10;;;;;;6183684;28;80642;-66
2021/07/28 09:42:32;;;;;;;12.55;6.85;;;28.40;55.80;;;;;;6188561;28;80212;-67
2021/07/28 09:45:32;;;;;;;12.40;6.65;;;28.40;54.90;;;;;;6183926;28;80508;-67
2021/07/28 09:48:33;;;;;;;14.95;6.82;;;28.40;55.00;;;;;;6182896;28;80999;-66
2021/07/28 09:51:33;;;;;;;9.80;6.50;;;28.40;56.40;;;;;;6177047;28;80807;-66
2021/07/28 09:54:34;;;;;;;12.18;6.55;;;28.40;57.10;;;;;;6203672;28;82979;-68
2021/07/28 09:57:34;;;;;;;13.27;6.50;;;28.40;56.20;;;;;;6187825;28;80969;-66
2021/07/28 10:00:35;;;;;;;15.18;7.38;;;28.50;55.60;;;;;;6188117;28;80790;-66
2021/07/28 10:03:35;;;;;;;15.57;6.75;;;28.40;56.30;;;;;;6186743;28;80620;-67
2021/07/28 10:06:39;;;;;;;20.38;7.97;;;28.40;56.20;;;;;;6183885;28;80487;-68
2021/07/28 10:09:40;;;;;;;15.95;7.82;;;28.40;57.30;;;;;;6189028;28;80488;-68
2021/07/28 10:12:40;;;;;;;14.73;7.47;;;28.40;56.10;;;;;;6187662;28;88242;-68
2021/07/28 10:15:41;;;;;;;18.42;7.55;;;28.50;55.10;;;;;;6186119;28;83398;-66
2021/07/28 10:18:41;;;;;;;19.08;7.50;;;28.50;55.40;;;;;;6188262;28;80476;-68
2021/07/28 10:21:42;;;;;;;13.18;6.85;;;28.50;54.80;;;;;;6185014;28;80331;-71
2021/07/28 10:24:42;;;;;;;19.38;6.93;;;28.50;54.10;;;;;;6184547;28;81062;-68
2021/07/28 10:27:43;;;;;;;15.43;7.25;;;28.40;55.10;;;;;;6184729;28;80307;-68
2021/07/28 10:30:45;;;;;;;11.80;6.72;;;28.40;55.30;;;;;;6183949;28;80419;-70
2021/07/28 10:33:46;;;;;;;14.45;7.93;;;28.40;55.30;;;;;;6184099;28;80793;-69
2021/07/28 10:36:47;;;;;;;9.25;6.22;;;28.30;56.10;;;;;;6184287;28;80390;-67
2021/07/28 10:39:47;;;;;;;12.07;6.28;;;28.30;56.10;;;;;;6183012;28;80303;-66
2021/07/28 10:42:48;;;;;;;14.43;6.90;;;28.20;55.20;;;;;;6182802;28;80160;-65
2021/07/28 10:45:48;;;;;;;13.88;6.03;;;28.20;55.00;;;;;;6179475;28;80416;-67
2021/07/28 10:48:52;;;;;;;14.07;5.78;;;28.40;53.70;;;;;;6183760;28;81333;-68
2021/07/28 10:51:54;;;;;;;12.13;5.47;;;28.50;53.90;;;;;;6180806;28;80462;-68
2021/07/28 10:54:54;;;;;;;10.48;6.07;;;28.50;52.50;;;;;;6180039;28;80505;-67
2021/07/28 10:57:54;;;;;;;15.20;5.93;;;28.60;52.80;;;;;;6174210;28;80581;-67
2021/07/28 11:00:55;;;;;;;13.75;5.75;;;28.70;52.70;;;;;;6178060;28;81392;-69
2021/07/28 11:03:56;;;;;;;15.98;5.60;;;28.70;51.70;;;;;;6174785;28;82401;-69
2021/07/28 11:06:56;;;;;;;35.85;21.85;;;28.80;51.40;;;;;;6191830;28;83945;-67
2021/07/28 11:09:57;;;;;;;61.40;36.17;;;28.70;52.60;;;;;;6171598;28;83561;-67
2021/07/28 11:12:57;;;;;;;55.13;31.33;;;28.60;53.00;;;;;;6174844;28;83325;-67
2021/07/28 11:15:58;;;;;;;31.77;17.80;;;28.60;53.40;;;;;;6165798;28;83613;-67
2021/07/28 11:18:59;;;;;;;37.17;21.85;;;28.70;52.40;;;;;;6174433;28;83104;-65
2021/07/28 11:21:59;;;;;;;34.53;16.75;;;28.60;53.10;;;;;;6179924;28;83482;-67
2021/07/28 11:25:00;;;;;;;23.88;11.55;;;28.60;54.00;;;;;;6176231;28;83224;-68
2021/07/28 11:28:00;;;;;;;24.17;9.65;;;28.80;52.70;;;;;;6167192;28;89099;-65
2021/07/28 11:31:01;;;;;;;18.45;9.93;;;28.90;51.40;;;;;;6185366;28;84759;-66
2021/07/28 11:34:01;;;;;;;23.75;11.90;;;28.90;52.70;;;;;;6167259;28;80679;-65
2021/07/28 11:37:02;;;;;;;14.27;7.93;;;28.80;53.50;;;;;;6166287;28;83276;-65
2021/07/28 11:40:02;;;;;;;16.85;7.30;;;28.80;53.30;;;;;;6164441;28;83634;-65
2021/07/28 11:43:03;;;;;;;17.33;7.53;;;28.80;52.60;;;;;;6178261;28;80405;-66
2021/07/28 11:46:04;;;;;;;13.73;7.05;;;28.80;53.40;;;;;;6179921;28;80865;-64
2021/07/28 11:49:04;;;;;;;20.60;8.65;;;28.70;53.70;;;;;;6179085;28;80781;-64
2021/07/28 11:52:05;;;;;;;15.15;7.38;;;28.70;54.00;;;;;;6177187;28;80386;-65
2021/07/28 11:55:05;;;;;;;13.05;6.53;;;28.70;53.10;;;;;;6181484;28;81819;-66
2021/07/28 11:58:06;;;;;;;15.90;7.70;;;28.80;52.00;;;;;;6176572;28;82472;-66
2021/07/28 12:01:06;;;;;;;9.32;6.63;;;28.90;51.90;;;;;;6175445;28;80503;-66
2021/07/28 12:04:09;;;;;;;11.05;6.78;;;28.80;53.10;;;;;;6181131;28;80579;-66
2021/07/28 12:07:10;;;;;;;10.63;6.18;;;28.80;53.00;;;;;;6179069;28;80419;-66
2021/07/28 12:10:10;;;;;;;15.35;7.30;;;28.80;53.20;;;;;;6176080;28;81591;-66
2021/07/28 12:13:11;;;;;;;9.98;5.63;;;28.70;53.70;;;;;;6177910;28;80649;-66
2021/07/28 12:16:11;;;;;;;14.02;6.82;;;28.70;53.70;;;;;;6175498;28;81739;-67
2021/07/28 12:19:12;;;;;;;15.90;6.88;;;28.60;54.00;;;;;;6176572;28;82306;-65
2021/07/28 12:22:12;;;;;;;15.75;7.13;;;28.60;53.80;;;;;;6178496;28;80255;-65
2021/07/28 12:25:13;;;;;;;13.63;7.32;;;28.60;54.10;;;;;;6179860;28;80368;-67
2021/07/28 12:28:14;;;;;;;11.70;5.88;;;28.60;54.60;;;;;;6182495;28;81693;-66
2021/07/28 12:31:14;;;;;;;12.27;6.85;;;28.60;54.20;;;;;;6178316;28;81419;-66
2021/07/28 12:34:15;;;;;;;11.38;6.30;;;28.60;54.60;;;;;;6169028;28;80669;-67
2021/07/28 12:37:15;;;;;;;14.80;7.30;;;28.70;54.80;;;;;;6181345;28;80969;-66
2021/07/28 12:40:15;;;;;;;10.38;7.25;;;28.70;53.50;;;;;;6176295;28;81006;-67
2021/07/28 12:43:16;;;;;;;13.30;7.47;;;28.70;54.40;;;;;;6164783;28;80835;-66
2021/07/28 12:46:16;;;;;;;13.68;6.75;;;28.60;54.00;;;;;;6175111;28;80835;-66
2021/07/28 12:49:17;;;;;;;18.63;7.00;;;28.60;54.60;;;;;;6172322;28;80456;-66
2021/07/28 12:52:17;;;;;;;12.60;7.22;;;28.60;54.80;;;;;;6167145;28;80352;-64
2021/07/28 12:55:18;;;;;;;15.27;6.97;;;28.50;55.30;;;;;;6172077;28;80427;-67
2021/07/28 12:58:18;;;;;;;12.82;7.18;;;28.50;55.10;;;;;;6177039;28;80821;-66
2021/07/28 13:01:19;;;;;;;12.40;7.10;;;28.50;55.40;;;;;;6178705;28;80574;-66
2021/07/28 13:04:20;;;;;;;15.32;6.90;;;28.50;56.10;;;;;;6192993;28;83798;-68
2021/07/28 13:07:33;;;;;;;11.98;6.75;;;28.50;56.90;;;;;;6166895;28;80309;-67
2021/07/28 13:10:33;;;;;;;130.10;48.60;;;28.50;55.80;;;;;;6177363;28;81596;-67
2021/07/28 13:13:34;;;;;;;225.63;79.53;;;28.60;56.30;;;;;;6176477;28;83245;-67
2021/07/28 13:16:34;;;;;;;188.15;73.60;;;28.60;56.30;;;;;;6176230;28;83958;-66
2021/07/28 13:19:35;;;;;;;254.05;93.45;;;28.60;55.10;;;;;;6169656;28;83235;-65
2021/07/28 13:22:35;;;;;;;230.13;82.13;;;28.70;54.80;;;;;;6160070;28;83723;-66
2021/07/28 13:25:36;;;;;;;236.10;91.50;;;28.80;55.50;;;;;;6164975;28;83167;-67
2021/07/28 13:28:36;;;;;;;114.95;45.70;;;28.70;56.00;;;;;;6168021;28;83377;-66
2021/07/28 13:31:37;;;;;;;146.07;52.58;;;28.80;54.40;;;;;;6169847;28;83134;-64
2021/07/28 13:34:38;;;;;;;129.10;49.67;;;28.80;54.90;;;;;;6170816;28;83177;-68
2021/07/28 13:37:39;;;;;;;87.65;34.25;;;28.70;55.60;;;;;;6173647;28;83272;-67
2021/07/28 13:40:39;;;;;;;78.97;34.20;;;28.70;55.00;;;;;;6170203;28;83950;-67
2021/07/28 13:43:40;;;;;;;70.70;28.60;;;28.80;55.70;;;;;;6172133;28;85000;-66
2021/07/28 13:46:40;;;;;;;60.47;23.30;;;28.70;55.70;;;;;;6164652;28;90251;-64
2021/07/28 13:49:41;;;;;;;51.33;21.77;;;28.70;55.60;;;;;;6177688;28;83621;-67
2021/07/28 13:52:41;;;;;;;44.80;19.50;;;28.60;56.20;;;;;;6191830;28;86226;-66
2021/07/28 13:55:42;;;;;;;36.53;15.63;;;28.60;56.10;;;;;;6176760;28;82917;-65
2021/07/28 13:58:42;;;;;;;31.38;14.80;;;28.60;56.10;;;;;;6166181;28;82997;-65
2021/07/28 14:01:43;;;;;;;22.48;12.43;;;28.50;56.30;;;;;;6174852;28;83030;-66
2021/07/28 14:04:43;;;;;;;25.45;12.80;;;28.50;55.80;;;;;;6178764;28;82804;-66
2021/07/28 14:07:44;;;;;;;25.17;10.73;;;28.50;56.00;;;;;;6180615;28;84037;-65
2021/07/28 14:10:44;;;;;;;25.52;10.88;;;28.60;55.80;;;;;;6178595;28;83480;-66
2021/07/28 14:13:45;;;;;;;25.52;11.65;;;28.60;55.90;;;;;;6168857;28;83138;-66
2021/07/28 14:16:45;;;;;;;18.92;10.20;;;28.60;56.20;;;;;;6174749;28;83087;-66
2021/07/28 14:19:46;;;;;;;18.25;7.90;;;28.60;56.40;;;;;;6178184;28;87444;-65
2021/07/28 14:22:46;;;;;;;21.40;8.52;;;28.70;55.40;;;;;;6177441;28;82950;-66
2021/07/28 14:25:46;;;;;;;14.20;7.60;;;28.70;55.60;;;;;;6182839;28;81161;-66
2021/07/28 14:28:47;;;;;;;14.23;7.30;;;28.70;55.20;;;;;;6183159;28;80522;-67
2021/07/28 14:31:48;;;;;;;14.70;7.30;;;28.80;53.90;;;;;;6178485;28;81422;-66
2021/07/28 14:34:48;;;;;;;13.57;7.15;;;28.90;53.70;;;;;;6172933;28;80421;-66
2021/07/28 14:37:48;;;;;;;17.30;8.20;;;28.80;53.70;;;;;;6170615;28;80519;-66
2021/07/28 14:40:49;;;;;;;17.30;7.72;;;28.80;53.90;;;;;;6179404;28;80746;-66
2021/07/28 14:43:50;;;;;;;11.93;7.68;;;28.80;54.90;;;;;;6173916;28;81072;-66
2021/07/28 14:46:50;;;;;;;14.88;7.68;;;28.70;54.90;;;;;;6173228;28;81231;-66
2021/07/28 14:49:51;;;;;;;13.52;7.53;;;28.70;54.20;;;;;;6173247;28;83131;-65
2021/07/28 14:52:51;;;;;;;11.82;6.78;;;28.70;55.50;;;;;;6169102;28;80884;-65
2021/07/28 14:55:52;;;;;;;19.60;8.20;;;28.70;55.40;;;;;;6172322;28;80672;-65
2021/07/28 14:58:52;;;;;;;11.63;6.60;;;28.70;55.90;;;;;;6175125;28;81598;-66
2021/07/28 15:01:53;;;;;;;16.15;7.40;;;28.60;56.40;;;;;;6174246;28;80598;-66
2021/07/28 15:04:53;;;;;;;11.18;7.40;;;28.60;56.40;;;;;;6167930;28;81096;-65
2021/07/28 15:07:54;;;;;;;20.35;7.40;;;28.60;56.80;;;;;;6175218;28;80897;-66
2021/07/28 15:10:54;;;;;;;15.80;7.88;;;28.60;56.70;;;;;;6184283;28;80716;-66
2021/07/28 15:13:55;;;;;;;14.65;7.55;;;28.50;56.80;;;;;;6181485;28;80246;-64
2021/07/28 15:16:55;;;;;;;11.55;7.13;;;28.50;56.90;;;;;;6173583;28;81420;-65
2021/07/28 15:19:56;;;;;;;15.02;7.82;;;28.50;57.20;;;;;;6174761;28;80544;-65
2021/07/28 15:22:56;;;;;;;15.05;7.60;;;28.50;56.80;;;;;;6173036;28;80402;-66
2021/07/28 15:25:57;;;;;;;15.55;7.70;;;28.50;56.90;;;;;;6173771;28;80505;-68